sensor_id;sensor_type;location;lat;lon;timestamp;P1;durP1;ratioP1;P2;durP2;ratioP2
3567;SDS011;1798;48.486;9.232;2022-08-01T00:00:36;5.03;;;3.13;;
3567;SDS011;1798;48.486;9.232;2022-08-01T00:03:03;5.90;;;3.60;;
3567;SDS011;1798;48.486;9.232;2022-08-01T00:05:30;6.90;;;3.30;;
3567;SDS011;1798;48.486;9.232;2022-08-01T00:07:58;5.87;;;3.43;;
3567;SDS011;1798;48.486;9.232;2022-08-01T00:10:25;5.43;;;3.50;;
3567;SDS011;1798;48.486;9.232;2022-08-01T00:12:52;13.73;;;3.70;;
3567;SDS011;1798;48.486;9.232;2022-08-01T00:15:19;6.77;;;3.90;;
3567;SDS011;1798;48.486;9.232;2022-08-01T00:17:46;8.30;;;3.40;;
3567;SDS011;1798;48.486;9.232;2022-08-01T00:20:13;8.93;;;3.93;;
3567;SDS011;1798;48.486;9.232;2022-08-01T00:22:40;4.80;;;3.20;;
3567;SDS011;1798;48.486;9.232;2022-08-01T00:25:08;5.40;;;3.30;;
3567;SDS011;1798;48.486;9.232;2022-08-01T00:27:35;8.70;;;3.67;;
3567;SDS011;1798;48.486;9.232;2022-08-01T00:30:02;5.43;;;3.37;;
3567;SDS011;1798;48.486;9.232;2022-08-01T00:32:29;6.60;;;3.57;;
3567;SDS011;1798;48.486;9.232;2022-08-01T00:34:57;11.40;;;4.40;;
3567;SDS011;1798;48.486;9.232;2022-08-01T00:37:23;7.30;;;3.23;;
3567;SDS011;1798;48.486;9.232;2022-08-01T00:39:50;6.20;;;3.73;;
3567;SDS011;1798;48.486;9.232;2022-08-01T00:42:18;6.90;;;3.10;;
3567;SDS011;1798;48.486;9.232;2022-08-01T00:44:45;12.17;;;3.90;;
3567;SDS011;1798;48.486;9.232;2022-08-01T00:47:12;10.40;;;4.17;;
3567;SDS011;1798;48.486;9.232;2022-08-01T00:49:39;5.80;;;3.20;;
3567;SDS011;1798;48.486;9.232;2022-08-01T00:52:06;5.90;;;4.00;;
3567;SDS011;1798;48.486;9.232;2022-08-01T00:54:34;7.17;;;4.07;;
3567;SDS011;1798;48.486;9.232;2022-08-01T00:57:02;5.70;;;3.27;;
3567;SDS011;1798;48.486;9.232;2022-08-01T00:59:30;5.43;;;3.10;;
3567;SDS011;1798;48.486;9.232;2022-08-01T01:01:57;5.50;;;3.37;;
3567;SDS011;1798;48.486;9.232;2022-08-01T01:04:24;5.83;;;3.10;;
3567;SDS011;1798;48.486;9.232;2022-08-01T01:06:53;5.07;;;3.30;;
3567;SDS011;1798;48.486;9.232;2022-08-01T01:09:27;5.70;;;3.57;;
3567;SDS011;1798;48.486;9.232;2022-08-01T01:12:01;7.40;;;3.80;;
3567;SDS011;1798;48.486;9.232;2022-08-01T01:14:35;7.17;;;3.43;;
3567;SDS011;1798;48.486;9.232;2022-08-01T01:17:09;6.47;;;4.00;;
3567;SDS011;1798;48.486;9.232;2022-08-01T01:19:39;6.10;;;3.50;;
3567;SDS011;1798;48.486;9.232;2022-08-01T01:22:17;6.57;;;3.10;;
3567;SDS011;1798;48.486;9.232;2022-08-01T01:24:52;5.97;;;3.47;;
3567;SDS011;1798;48.486;9.232;2022-08-01T01:27:36;5.63;;;3.67;;
3567;SDS011;1798;48.486;9.232;2022-08-01T01:30:10;9.67;;;3.47;;
3567;SDS011;1798;48.486;9.232;2022-08-01T01:32:38;6.27;;;3.07;;
3567;SDS011;1798;48.486;9.232;2022-08-01T01:35:06;14.73;;;3.70;;
3567;SDS011;1798;48.486;9.232;2022-08-01T01:37:36;7.70;;;4.03;;
3567;SDS011;1798;48.486;9.232;2022-08-01T01:40:05;9.87;;;3.30;;
3567;SDS011;1798;48.486;9.232;2022-08-01T01:42:34;6.40;;;3.83;;
3567;SDS011;1798;48.486;9.232;2022-08-01T01:45:00;7.63;;;3.47;;
3567;SDS011;1798;48.486;9.232;2022-08-01T01:47:31;5.53;;;3.57;;
3567;SDS011;1798;48.486;9.232;2022-08-01T01:49:58;11.70;;;3.80;;
3567;SDS011;1798;48.486;9.232;2022-08-01T01:52:26;6.03;;;3.73;;
3567;SDS011;1798;48.486;9.232;2022-08-01T01:54:54;8.30;;;3.67;;
3567;SDS011;1798;48.486;9.232;2022-08-01T01:57:22;6.53;;;3.70;;
3567;SDS011;1798;48.486;9.232;2022-08-01T01:59:49;5.30;;;3.30;;
3567;SDS011;1798;48.486;9.232;2022-08-01T02:02:17;8.80;;;3.80;;
3567;SDS011;1798;48.486;9.232;2022-08-01T02:04:46;8.00;;;3.23;;
3567;SDS011;1798;48.486;9.232;2022-08-01T02:07:16;5.07;;;3.00;;
3567;SDS011;1798;48.486;9.232;2022-08-01T02:09:44;8.73;;;3.43;;
3567;SDS011;1798;48.486;9.232;2022-08-01T02:12:12;5.57;;;3.93;;
3567;SDS011;1798;48.486;9.232;2022-08-01T02:14:39;13.30;;;3.90;;
3567;SDS011;1798;48.486;9.232;2022-08-01T02:17:07;5.10;;;3.20;;
3567;SDS011;1798;48.486;9.232;2022-08-01T02:19:35;7.03;;;4.13;;
3567;SDS011;1798;48.486;9.232;2022-08-01T02:22:04;7.00;;;3.80;;
3567;SDS011;1798;48.486;9.232;2022-08-01T02:24:35;7.60;;;3.87;;
3567;SDS011;1798;48.486;9.232;2022-08-01T02:27:04;7.80;;;3.87;;
3567;SDS011;1798;48.486;9.232;2022-08-01T02:29:36;7.50;;;3.60;;
3567;SDS011;1798;48.486;9.232;2022-08-01T02:32:06;7.80;;;3.80;;
3567;SDS011;1798;48.486;9.232;2022-08-01T02:34:34;8.27;;;4.23;;
3567;SDS011;1798;48.486;9.232;2022-08-01T02:37:02;12.80;;;4.37;;
3567;SDS011;1798;48.486;9.232;2022-08-01T02:39:31;6.20;;;3.70;;
3567;SDS011;1798;48.486;9.232;2022-08-01T02:41:59;5.03;;;3.43;;
3567;SDS011;1798;48.486;9.232;2022-08-01T02:44:30;5.53;;;3.23;;
3567;SDS011;1798;48.486;9.232;2022-08-01T02:47:00;7.00;;;4.07;;
3567;SDS011;1798;48.486;9.232;2022-08-01T02:49:28;5.77;;;4.00;;
3567;SDS011;1798;48.486;9.232;2022-08-01T02:51:56;16.53;;;4.00;;
3567;SDS011;1798;48.486;9.232;2022-08-01T02:54:24;4.70;;;2.80;;
3567;SDS011;1798;48.486;9.232;2022-08-01T02:56:52;5.70;;;3.60;;
3567;SDS011;1798;48.486;9.232;2022-08-01T02:59:20;5.60;;;3.40;;
3567;SDS011;1798;48.486;9.232;2022-08-01T03:01:50;9.70;;;3.90;;
3567;SDS011;1798;48.486;9.232;2022-08-01T03:04:18;6.03;;;2.93;;
3567;SDS011;1798;48.486;9.232;2022-08-01T03:06:45;8.40;;;4.30;;
3567;SDS011;1798;48.486;9.232;2022-08-01T03:09:13;5.90;;;4.33;;
3567;SDS011;1798;48.486;9.232;2022-08-01T03:11:42;14.37;;;4.40;;
3567;SDS011;1798;48.486;9.232;2022-08-01T03:14:10;5.80;;;3.50;;
3567;SDS011;1798;48.486;9.232;2022-08-01T03:16:38;8.43;;;4.80;;
3567;SDS011;1798;48.486;9.232;2022-08-01T03:19:07;11.50;;;3.37;;
3567;SDS011;1798;48.486;9.232;2022-08-01T03:21:35;5.63;;;3.50;;
3567;SDS011;1798;48.486;9.232;2022-08-01T03:24:03;6.53;;;3.90;;
3567;SDS011;1798;48.486;9.232;2022-08-01T03:26:32;7.33;;;4.23;;
3567;SDS011;1798;48.486;9.232;2022-08-01T03:29:03;5.67;;;3.70;;
3567;SDS011;1798;48.486;9.232;2022-08-01T03:31:32;7.00;;;4.03;;
3567;SDS011;1798;48.486;9.232;2022-08-01T03:34:00;9.60;;;4.07;;
3567;SDS011;1798;48.486;9.232;2022-08-01T03:36:28;5.43;;;3.43;;
3567;SDS011;1798;48.486;9.232;2022-08-01T03:38:57;5.37;;;3.60;;
3567;SDS011;1798;48.486;9.232;2022-08-01T03:41:26;6.23;;;3.40;;
3567;SDS011;1798;48.486;9.232;2022-08-01T03:43:55;6.37;;;4.10;;
3567;SDS011;1798;48.486;9.232;2022-08-01T03:46:29;5.30;;;3.20;;
3567;SDS011;1798;48.486;9.232;2022-08-01T03:49:00;4.63;;;3.03;;
3567;SDS011;1798;48.486;9.232;2022-08-01T03:51:30;8.30;;;3.70;;
3567;SDS011;1798;48.486;9.232;2022-08-01T03:53:58;8.13;;;4.37;;
3567;SDS011;1798;48.486;9.232;2022-08-01T03:56:25;16.30;;;4.00;;
3567;SDS011;1798;48.486;9.232;2022-08-01T03:58:53;6.80;;;4.10;;
3567;SDS011;1798;48.486;9.232;2022-08-01T04:01:20;8.63;;;4.30;;
3567;SDS011;1798;48.486;9.232;2022-08-01T04:03:49;5.57;;;3.83;;
3567;SDS011;1798;48.486;9.232;2022-08-01T04:06:15;5.13;;;3.70;;
3567;SDS011;1798;48.486;9.232;2022-08-01T04:08:42;9.33;;;4.30;;
3567;SDS011;1798;48.486;9.232;2022-08-01T04:11:20;6.53;;;4.07;;
3567;SDS011;1798;48.486;9.232;2022-08-01T04:13:47;11.50;;;4.77;;
3567;SDS011;1798;48.486;9.232;2022-08-01T04:16:14;5.73;;;3.80;;
3567;SDS011;1798;48.486;9.232;2022-08-01T04:18:40;8.23;;;3.87;;
3567;SDS011;1798;48.486;9.232;2022-08-01T04:21:09;9.87;;;4.33;;
3567;SDS011;1798;48.486;9.232;2022-08-01T04:23:35;5.67;;;4.03;;
3567;SDS011;1798;48.486;9.232;2022-08-01T04:26:04;6.83;;;4.10;;
3567;SDS011;1798;48.486;9.232;2022-08-01T04:28:32;8.00;;;4.60;;
3567;SDS011;1798;48.486;9.232;2022-08-01T04:31:01;9.40;;;4.37;;
3567;SDS011;1798;48.486;9.232;2022-08-01T04:33:29;7.20;;;3.53;;
3567;SDS011;1798;48.486;9.232;2022-08-01T04:35:58;8.07;;;4.70;;
3567;SDS011;1798;48.486;9.232;2022-08-01T04:38:27;6.53;;;4.80;;
3567;SDS011;1798;48.486;9.232;2022-08-01T04:40:55;7.67;;;4.47;;
3567;SDS011;1798;48.486;9.232;2022-08-01T04:43:22;8.53;;;3.93;;
3567;SDS011;1798;48.486;9.232;2022-08-01T04:45:49;5.03;;;3.50;;
3567;SDS011;1798;48.486;9.232;2022-08-01T04:48:17;6.57;;;3.90;;
3567;SDS011;1798;48.486;9.232;2022-08-01T04:50:45;6.73;;;3.90;;
3567;SDS011;1798;48.486;9.232;2022-08-01T04:53:13;5.63;;;3.40;;
3567;SDS011;1798;48.486;9.232;2022-08-01T04:55:43;19.27;;;4.10;;
3567;SDS011;1798;48.486;9.232;2022-08-01T04:58:11;36.53;;;4.57;;
3567;SDS011;1798;48.486;9.232;2022-08-01T05:00:37;10.73;;;4.43;;
3567;SDS011;1798;48.486;9.232;2022-08-01T05:03:04;14.47;;;4.00;;
3567;SDS011;1798;48.486;9.232;2022-08-01T05:05:31;8.40;;;4.17;;
3567;SDS011;1798;48.486;9.232;2022-08-01T05:07:58;14.23;;;4.13;;
3567;SDS011;1798;48.486;9.232;2022-08-01T05:10:25;5.07;;;3.43;;
3567;SDS011;1798;48.486;9.232;2022-08-01T05:12:53;10.50;;;4.90;;
3567;SDS011;1798;48.486;9.232;2022-08-01T05:15:20;10.47;;;4.50;;
3567;SDS011;1798;48.486;9.232;2022-08-01T05:17:47;8.67;;;4.37;;
3567;SDS011;1798;48.486;9.232;2022-08-01T05:20:13;5.87;;;3.80;;
3567;SDS011;1798;48.486;9.232;2022-08-01T05:22:40;12.27;;;4.07;;
3567;SDS011;1798;48.486;9.232;2022-08-01T05:25:07;6.87;;;4.17;;
3567;SDS011;1798;48.486;9.232;2022-08-01T05:27:35;31.73;;;7.30;;
3567;SDS011;1798;48.486;9.232;2022-08-01T05:30:07;11.17;;;4.50;;
3567;SDS011;1798;48.486;9.232;2022-08-01T05:32:35;9.37;;;4.53;;
3567;SDS011;1798;48.486;9.232;2022-08-01T05:35:03;15.07;;;5.13;;
3567;SDS011;1798;48.486;9.232;2022-08-01T05:37:30;12.40;;;4.77;;
3567;SDS011;1798;48.486;9.232;2022-08-01T05:39:57;8.80;;;4.63;;
3567;SDS011;1798;48.486;9.232;2022-08-01T05:42:24;18.23;;;4.70;;
3567;SDS011;1798;48.486;9.232;2022-08-01T05:44:51;17.00;;;4.90;;
3567;SDS011;1798;48.486;9.232;2022-08-01T05:47:19;9.23;;;4.90;;
3567;SDS011;1798;48.486;9.232;2022-08-01T05:49:46;20.07;;;5.50;;
3567;SDS011;1798;48.486;9.232;2022-08-01T05:52:12;31.10;;;4.70;;
3567;SDS011;1798;48.486;9.232;2022-08-01T05:54:39;20.77;;;5.40;;
3567;SDS011;1798;48.486;9.232;2022-08-01T05:57:06;10.70;;;4.63;;
3567;SDS011;1798;48.486;9.232;2022-08-01T05:59:33;17.17;;;5.63;;
3567;SDS011;1798;48.486;9.232;2022-08-01T06:02:00;10.67;;;4.20;;
3567;SDS011;1798;48.486;9.232;2022-08-01T06:04:28;31.67;;;5.60;;
3567;SDS011;1798;48.486;9.232;2022-08-01T06:06:55;29.47;;;5.17;;
3567;SDS011;1798;48.486;9.232;2022-08-01T06:09:21;9.33;;;4.13;;
3567;SDS011;1798;48.486;9.232;2022-08-01T06:11:48;16.10;;;5.93;;
3567;SDS011;1798;48.486;9.232;2022-08-01T06:14:15;16.40;;;4.60;;
3567;SDS011;1798;48.486;9.232;2022-08-01T06:16:42;10.80;;;4.60;;
3567;SDS011;1798;48.486;9.232;2022-08-01T06:19:09;8.13;;;4.37;;
3567;SDS011;1798;48.486;9.232;2022-08-01T06:21:37;8.27;;;4.77;;
3567;SDS011;1798;48.486;9.232;2022-08-01T06:24:04;14.90;;;4.87;;
3567;SDS011;1798;48.486;9.232;2022-08-01T06:26:31;78.37;;;7.80;;
3567;SDS011;1798;48.486;9.232;2022-08-01T06:28:58;44.23;;;5.27;;
3567;SDS011;1798;48.486;9.232;2022-08-01T06:31:24;10.03;;;4.53;;
3567;SDS011;1798;48.486;9.232;2022-08-01T06:33:51;12.63;;;5.00;;
3567;SDS011;1798;48.486;9.232;2022-08-01T06:36:18;10.47;;;4.90;;
3567;SDS011;1798;48.486;9.232;2022-08-01T06:38:46;8.10;;;4.17;;
3567;SDS011;1798;48.486;9.232;2022-08-01T06:41:13;13.90;;;4.47;;
3567;SDS011;1798;48.486;9.232;2022-08-01T06:43:40;8.97;;;4.90;;
3567;SDS011;1798;48.486;9.232;2022-08-01T06:46:07;9.10;;;4.87;;
3567;SDS011;1798;48.486;9.232;2022-08-01T06:48:34;10.83;;;5.47;;
3567;SDS011;1798;48.486;9.232;2022-08-01T06:51:04;21.00;;;5.30;;
3567;SDS011;1798;48.486;9.232;2022-08-01T06:53:34;14.20;;;6.10;;
3567;SDS011;1798;48.486;9.232;2022-08-01T06:56:03;18.23;;;6.13;;
3567;SDS011;1798;48.486;9.232;2022-08-01T06:58:31;7.47;;;5.07;;
3567;SDS011;1798;48.486;9.232;2022-08-01T07:00:59;7.73;;;4.73;;
3567;SDS011;1798;48.486;9.232;2022-08-01T07:03:26;9.43;;;5.80;;
3567;SDS011;1798;48.486;9.232;2022-08-01T07:05:53;11.43;;;4.80;;
3567;SDS011;1798;48.486;9.232;2022-08-01T07:08:20;18.30;;;5.33;;
3567;SDS011;1798;48.486;9.232;2022-08-01T07:10:47;15.03;;;5.97;;
3567;SDS011;1798;48.486;9.232;2022-08-01T07:13:15;7.93;;;5.20;;
3567;SDS011;1798;48.486;9.232;2022-08-01T07:15:46;11.23;;;5.90;;
3567;SDS011;1798;48.486;9.232;2022-08-01T07:18:12;11.80;;;4.53;;
3567;SDS011;1798;48.486;9.232;2022-08-01T07:20:39;9.40;;;5.80;;
3567;SDS011;1798;48.486;9.232;2022-08-01T07:23:06;7.00;;;4.50;;
3567;SDS011;1798;48.486;9.232;2022-08-01T07:25:33;7.40;;;5.10;;
3567;SDS011;1798;48.486;9.232;2022-08-01T07:28:00;7.70;;;5.30;;
3567;SDS011;1798;48.486;9.232;2022-08-01T07:30:28;9.20;;;5.50;;
3567;SDS011;1798;48.486;9.232;2022-08-01T07:32:55;7.43;;;5.03;;
3567;SDS011;1798;48.486;9.232;2022-08-01T07:35:22;10.53;;;4.37;;
3567;SDS011;1798;48.486;9.232;2022-08-01T07:37:49;9.30;;;5.33;;
3567;SDS011;1798;48.486;9.232;2022-08-01T07:40:16;12.43;;;4.63;;
3567;SDS011;1798;48.486;9.232;2022-08-01T07:42:43;9.77;;;6.20;;
3567;SDS011;1798;48.486;9.232;2022-08-01T07:45:10;6.77;;;5.07;;
3567;SDS011;1798;48.486;9.232;2022-08-01T07:47:39;7.60;;;4.57;;
3567;SDS011;1798;48.486;9.232;2022-08-01T07:50:07;8.50;;;5.03;;
3567;SDS011;1798;48.486;9.232;2022-08-01T07:52:34;7.10;;;4.57;;
3567;SDS011;1798;48.486;9.232;2022-08-01T07:55:01;15.90;;;5.37;;
3567;SDS011;1798;48.486;9.232;2022-08-01T07:57:28;9.43;;;4.73;;
3567;SDS011;1798;48.486;9.232;2022-08-01T07:59:55;7.87;;;4.47;;
3567;SDS011;1798;48.486;9.232;2022-08-01T08:02:22;9.97;;;4.80;;
3567;SDS011;1798;48.486;9.232;2022-08-01T08:04:50;7.83;;;4.87;;
3567;SDS011;1798;48.486;9.232;2022-08-01T08:07:17;8.90;;;4.93;;
3567;SDS011;1798;48.486;9.232;2022-08-01T08:09:43;11.13;;;5.10;;
3567;SDS011;1798;48.486;9.232;2022-08-01T08:12:10;9.80;;;5.60;;
3567;SDS011;1798;48.486;9.232;2022-08-01T08:14:37;7.43;;;4.70;;
3567;SDS011;1798;48.486;9.232;2022-08-01T08:17:04;13.93;;;5.27;;
3567;SDS011;1798;48.486;9.232;2022-08-01T08:19:31;8.83;;;4.77;;
3567;SDS011;1798;48.486;9.232;2022-08-01T08:21:59;6.97;;;4.80;;
3567;SDS011;1798;48.486;9.232;2022-08-01T08:24:26;8.47;;;5.07;;
3567;SDS011;1798;48.486;9.232;2022-08-01T08:26:54;11.60;;;5.67;;
3567;SDS011;1798;48.486;9.232;2022-08-01T08:29:22;9.70;;;4.80;;
3567;SDS011;1798;48.486;9.232;2022-08-01T08:31:49;9.80;;;5.30;;
3567;SDS011;1798;48.486;9.232;2022-08-01T08:34:16;7.07;;;4.87;;
3567;SDS011;1798;48.486;9.232;2022-08-01T08:36:43;9.33;;;5.63;;
3567;SDS011;1798;48.486;9.232;2022-08-01T08:39:11;11.20;;;5.43;;
3567;SDS011;1798;48.486;9.232;2022-08-01T08:41:38;7.50;;;5.20;;
3567;SDS011;1798;48.486;9.232;2022-08-01T08:44:05;8.40;;;5.50;;
3567;SDS011;1798;48.486;9.232;2022-08-01T08:46:33;10.83;;;5.03;;
3567;SDS011;1798;48.486;9.232;2022-08-01T08:49:07;7.90;;;4.57;;
3567;SDS011;1798;48.486;9.232;2022-08-01T08:51:37;10.30;;;4.27;;
3567;SDS011;1798;48.486;9.232;2022-08-01T08:54:05;8.97;;;5.47;;
3567;SDS011;1798;48.486;9.232;2022-08-01T08:56:34;11.50;;;4.77;;
3567;SDS011;1798;48.486;9.232;2022-08-01T08:59:02;6.80;;;4.50;;
3567;SDS011;1798;48.486;9.232;2022-08-01T09:01:29;12.73;;;5.30;;
3567;SDS011;1798;48.486;9.232;2022-08-01T09:03:57;7.47;;;4.90;;
3567;SDS011;1798;48.486;9.232;2022-08-01T09:06:24;7.50;;;5.00;;
3567;SDS011;1798;48.486;9.232;2022-08-01T09:08:51;9.60;;;6.33;;
3567;SDS011;1798;48.486;9.232;2022-08-01T09:11:18;8.57;;;5.80;;
3567;SDS011;1798;48.486;9.232;2022-08-01T09:13:49;7.53;;;5.00;;
3567;SDS011;1798;48.486;9.232;2022-08-01T09:16:28;7.70;;;5.00;;
3567;SDS011;1798;48.486;9.232;2022-08-01T09:19:04;9.17;;;5.33;;
3567;SDS011;1798;48.486;9.232;2022-08-01T09:21:33;8.40;;;5.83;;
3567;SDS011;1798;48.486;9.232;2022-08-01T09:24:00;7.90;;;5.53;;
3567;SDS011;1798;48.486;9.232;2022-08-01T09:26:31;11.10;;;6.10;;
3567;SDS011;1798;48.486;9.232;2022-08-01T09:29:00;6.20;;;4.43;;
3567;SDS011;1798;48.486;9.232;2022-08-01T09:31:29;7.13;;;4.47;;
3567;SDS011;1798;48.486;9.232;2022-08-01T09:33:56;8.20;;;4.47;;
3567;SDS011;1798;48.486;9.232;2022-08-01T09:36:26;6.20;;;4.63;;
3567;SDS011;1798;48.486;9.232;2022-08-01T09:39:11;7.13;;;4.70;;
3567;SDS011;1798;48.486;9.232;2022-08-01T09:41:39;7.77;;;5.13;;
3567;SDS011;1798;48.486;9.232;2022-08-01T09:44:08;9.23;;;5.20;;
3567;SDS011;1798;48.486;9.232;2022-08-01T09:46:34;7.83;;;4.97;;
3567;SDS011;1798;48.486;9.232;2022-08-01T09:49:02;8.07;;;5.00;;
3567;SDS011;1798;48.486;9.232;2022-08-01T09:51:31;7.90;;;5.00;;
3567;SDS011;1798;48.486;9.232;2022-08-01T09:53:58;8.60;;;5.03;;
3567;SDS011;1798;48.486;9.232;2022-08-01T09:56:26;7.10;;;5.27;;
3567;SDS011;1798;48.486;9.232;2022-08-01T09:58:54;8.80;;;4.63;;
3567;SDS011;1798;48.486;9.232;2022-08-01T10:01:23;12.30;;;5.00;;
3567;SDS011;1798;48.486;9.232;2022-08-01T10:04:07;11.80;;;5.50;;
3567;SDS011;1798;48.486;9.232;2022-08-01T10:06:35;8.10;;;5.23;;
3567;SDS011;1798;48.486;9.232;2022-08-01T10:09:02;6.63;;;4.13;;
3567;SDS011;1798;48.486;9.232;2022-08-01T10:11:29;9.70;;;4.50;;
3567;SDS011;1798;48.486;9.232;2022-08-01T10:13:57;7.00;;;4.17;;
3567;SDS011;1798;48.486;9.232;2022-08-01T10:16:27;9.07;;;4.20;;
3567;SDS011;1798;48.486;9.232;2022-08-01T10:18:55;9.27;;;5.60;;
3567;SDS011;1798;48.486;9.232;2022-08-01T10:21:22;10.43;;;5.33;;
3567;SDS011;1798;48.486;9.232;2022-08-01T10:23:51;8.13;;;4.87;;
3567;SDS011;1798;48.486;9.232;2022-08-01T10:26:18;8.80;;;5.03;;
3567;SDS011;1798;48.486;9.232;2022-08-01T10:28:45;7.03;;;4.17;;
3567;SDS011;1798;48.486;9.232;2022-08-01T10:31:14;7.60;;;4.90;;
3567;SDS011;1798;48.486;9.232;2022-08-01T10:33:44;8.23;;;5.20;;
3567;SDS011;1798;48.486;9.232;2022-08-01T10:36:11;9.40;;;4.70;;
3567;SDS011;1798;48.486;9.232;2022-08-01T10:38:38;7.93;;;5.00;;
3567;SDS011;1798;48.486;9.232;2022-08-01T10:41:06;7.93;;;5.07;;
3567;SDS011;1798;48.486;9.232;2022-08-01T10:43:33;7.83;;;5.20;;
3567;SDS011;1798;48.486;9.232;2022-08-01T10:45:59;16.57;;;5.63;;
3567;SDS011;1798;48.486;9.232;2022-08-01T10:48:29;29.30;;;5.50;;
3567;SDS011;1798;48.486;9.232;2022-08-01T10:51:00;7.10;;;4.70;;
3567;SDS011;1798;48.486;9.232;2022-08-01T10:53:28;6.77;;;4.43;;
3567;SDS011;1798;48.486;9.232;2022-08-01T10:55:57;7.97;;;5.33;;
3567;SDS011;1798;48.486;9.232;2022-08-01T10:58:27;15.27;;;5.00;;
3567;SDS011;1798;48.486;9.232;2022-08-01T11:01:19;12.53;;;5.50;;
3567;SDS011;1798;48.486;9.232;2022-08-01T11:06:42;8.13;;;4.50;;
3567;SDS011;1798;48.486;9.232;2022-08-01T11:09:22;14.83;;;4.60;;
3567;SDS011;1798;48.486;9.232;2022-08-01T11:12:00;9.70;;;5.40;;
3567;SDS011;1798;48.486;9.232;2022-08-01T11:14:29;9.77;;;6.00;;
3567;SDS011;1798;48.486;9.232;2022-08-01T11:16:57;10.53;;;5.00;;
3567;SDS011;1798;48.486;9.232;2022-08-01T11:20:06;10.63;;;6.17;;
3567;SDS011;1798;48.486;9.232;2022-08-01T11:28:34;8.27;;;5.13;;
3567;SDS011;1798;48.486;9.232;2022-08-01T11:33:52;19.63;;;5.90;;
3567;SDS011;1798;48.486;9.232;2022-08-01T11:36:19;8.10;;;4.80;;
3567;SDS011;1798;48.486;9.232;2022-08-01T11:38:47;8.20;;;4.80;;
3567;SDS011;1798;48.486;9.232;2022-08-01T11:41:17;8.37;;;5.13;;
3567;SDS011;1798;48.486;9.232;2022-08-01T11:43:55;7.60;;;4.70;;
3567;SDS011;1798;48.486;9.232;2022-08-01T11:49:23;15.20;;;5.33;;
3567;SDS011;1798;48.486;9.232;2022-08-01T11:52:26;9.10;;;5.50;;
3567;SDS011;1798;48.486;9.232;2022-08-01T11:54:55;10.37;;;5.50;;
3567;SDS011;1798;48.486;9.232;2022-08-01T11:57:25;9.53;;;4.30;;
3567;SDS011;1798;48.486;9.232;2022-08-01T11:59:56;6.40;;;4.80;;
3567;SDS011;1798;48.486;9.232;2022-08-01T12:02:25;11.70;;;6.53;;
3567;SDS011;1798;48.486;9.232;2022-08-01T12:04:54;7.97;;;4.97;;
3567;SDS011;1798;48.486;9.232;2022-08-01T12:07:22;8.57;;;5.13;;
3567;SDS011;1798;48.486;9.232;2022-08-01T12:10:01;7.97;;;4.73;;
3567;SDS011;1798;48.486;9.232;2022-08-01T12:12:30;6.73;;;4.27;;
3567;SDS011;1798;48.486;9.232;2022-08-01T12:14:59;8.93;;;4.60;;
3567;SDS011;1798;48.486;9.232;2022-08-01T12:17:27;12.30;;;5.83;;
3567;SDS011;1798;48.486;9.232;2022-08-01T12:19:55;10.57;;;5.70;;
3567;SDS011;1798;48.486;9.232;2022-08-01T12:22:22;10.90;;;5.60;;
3567;SDS011;1798;48.486;9.232;2022-08-01T12:24:50;19.47;;;6.13;;
3567;SDS011;1798;48.486;9.232;2022-08-01T12:27:23;9.10;;;5.40;;
3567;SDS011;1798;48.486;9.232;2022-08-01T12:29:52;15.07;;;6.30;;
3567;SDS011;1798;48.486;9.232;2022-08-01T12:32:22;21.40;;;6.27;;
3567;SDS011;1798;48.486;9.232;2022-08-01T12:34:50;13.93;;;8.00;;
3567;SDS011;1798;48.486;9.232;2022-08-01T12:37:18;13.60;;;4.87;;
3567;SDS011;1798;48.486;9.232;2022-08-01T12:39:45;6.80;;;4.53;;
3567;SDS011;1798;48.486;9.232;2022-08-01T12:42:12;9.90;;;5.10;;
3567;SDS011;1798;48.486;9.232;2022-08-01T12:44:40;9.77;;;6.10;;
3567;SDS011;1798;48.486;9.232;2022-08-01T12:47:10;7.87;;;5.03;;
3567;SDS011;1798;48.486;9.232;2022-08-01T12:49:37;8.27;;;5.73;;
3567;SDS011;1798;48.486;9.232;2022-08-01T12:52:05;9.13;;;4.60;;
3567;SDS011;1798;48.486;9.232;2022-08-01T12:57:26;10.00;;;6.13;;
3567;SDS011;1798;48.486;9.232;2022-08-01T12:59:52;10.33;;;5.83;;
3567;SDS011;1798;48.486;9.232;2022-08-01T13:02:21;10.20;;;5.97;;
3567;SDS011;1798;48.486;9.232;2022-08-01T13:04:58;10.10;;;6.53;;
3567;SDS011;1798;48.486;9.232;2022-08-01T13:07:34;13.13;;;6.60;;
3567;SDS011;1798;48.486;9.232;2022-08-01T13:10:01;11.87;;;6.70;;
3567;SDS011;1798;48.486;9.232;2022-08-01T13:12:28;14.90;;;5.93;;
3567;SDS011;1798;48.486;9.232;2022-08-01T13:14:55;10.20;;;6.00;;
3567;SDS011;1798;48.486;9.232;2022-08-01T13:17:31;12.67;;;6.77;;
3567;SDS011;1798;48.486;9.232;2022-08-01T13:19:58;10.50;;;5.90;;
3567;SDS011;1798;48.486;9.232;2022-08-01T13:22:31;11.33;;;5.67;;
3567;SDS011;1798;48.486;9.232;2022-08-01T13:25:08;10.57;;;7.10;;
3567;SDS011;1798;48.486;9.232;2022-08-01T13:27:36;10.73;;;5.70;;
3567;SDS011;1798;48.486;9.232;2022-08-01T13:30:10;7.07;;;4.90;;
3567;SDS011;1798;48.486;9.232;2022-08-01T13:32:39;14.63;;;6.67;;
3567;SDS011;1798;48.486;9.232;2022-08-01T13:35:07;14.80;;;6.00;;
3567;SDS011;1798;48.486;9.232;2022-08-01T13:37:35;8.70;;;5.50;;
3567;SDS011;1798;48.486;9.232;2022-08-01T13:40:02;8.10;;;5.60;;
3567;SDS011;1798;48.486;9.232;2022-08-01T13:42:30;9.20;;;6.13;;
3567;SDS011;1798;48.486;9.232;2022-08-01T13:44:57;9.87;;;4.60;;
3567;SDS011;1798;48.486;9.232;2022-08-01T13:47:23;10.73;;;5.73;;
3567;SDS011;1798;48.486;9.232;2022-08-01T13:49:51;19.00;;;6.50;;
3567;SDS011;1798;48.486;9.232;2022-08-01T13:52:18;8.90;;;5.80;;
3567;SDS011;1798;48.486;9.232;2022-08-01T13:54:45;9.23;;;6.10;;
3567;SDS011;1798;48.486;9.232;2022-08-01T13:57:12;7.97;;;4.93;;
3567;SDS011;1798;48.486;9.232;2022-08-01T13:59:41;9.17;;;5.47;;
3567;SDS011;1798;48.486;9.232;2022-08-01T14:02:08;22.73;;;6.00;;
3567;SDS011;1798;48.486;9.232;2022-08-01T14:04:35;19.63;;;6.93;;
3567;SDS011;1798;48.486;9.232;2022-08-01T14:07:03;9.67;;;5.97;;
3567;SDS011;1798;48.486;9.232;2022-08-01T14:09:30;10.23;;;5.40;;
3567;SDS011;1798;48.486;9.232;2022-08-01T14:11:58;11.20;;;6.13;;
3567;SDS011;1798;48.486;9.232;2022-08-01T14:14:26;7.20;;;5.03;;
3567;SDS011;1798;48.486;9.232;2022-08-01T14:16:53;8.03;;;5.97;;
3567;SDS011;1798;48.486;9.232;2022-08-01T14:19:19;9.93;;;5.67;;
3567;SDS011;1798;48.486;9.232;2022-08-01T14:21:46;9.50;;;5.20;;
3567;SDS011;1798;48.486;9.232;2022-08-01T14:24:15;14.33;;;5.53;;
3567;SDS011;1798;48.486;9.232;2022-08-01T14:26:41;16.77;;;5.70;;
3567;SDS011;1798;48.486;9.232;2022-08-01T14:29:08;9.07;;;5.83;;
3567;SDS011;1798;48.486;9.232;2022-08-01T14:31:35;8.90;;;5.70;;
3567;SDS011;1798;48.486;9.232;2022-08-01T14:34:02;8.70;;;4.93;;
3567;SDS011;1798;48.486;9.232;2022-08-01T14:36:29;11.90;;;4.20;;
3567;SDS011;1798;48.486;9.232;2022-08-01T14:38:56;8.43;;;5.07;;
3567;SDS011;1798;48.486;9.232;2022-08-01T14:41:25;7.87;;;5.10;;
3567;SDS011;1798;48.486;9.232;2022-08-01T14:43:51;7.60;;;4.40;;
3567;SDS011;1798;48.486;9.232;2022-08-01T14:46:18;10.80;;;5.03;;
3567;SDS011;1798;48.486;9.232;2022-08-01T14:48:45;8.77;;;5.40;;
3567;SDS011;1798;48.486;9.232;2022-08-01T14:51:12;12.70;;;7.03;;
3567;SDS011;1798;48.486;9.232;2022-08-01T14:53:39;8.57;;;5.10;;
3567;SDS011;1798;48.486;9.232;2022-08-01T14:56:07;7.40;;;4.97;;
3567;SDS011;1798;48.486;9.232;2022-08-01T14:58:35;10.30;;;5.17;;
3567;SDS011;1798;48.486;9.232;2022-08-01T15:01:02;9.30;;;5.30;;
3567;SDS011;1798;48.486;9.232;2022-08-01T15:03:30;7.80;;;5.40;;
3567;SDS011;1798;48.486;9.232;2022-08-01T15:05:58;11.97;;;4.90;;
3567;SDS011;1798;48.486;9.232;2022-08-01T15:08:27;34.03;;;6.60;;
3567;SDS011;1798;48.486;9.232;2022-08-01T15:10:54;11.63;;;6.30;;
3567;SDS011;1798;48.486;9.232;2022-08-01T15:13:21;10.90;;;5.43;;
3567;SDS011;1798;48.486;9.232;2022-08-01T15:15:49;17.03;;;6.10;;
3567;SDS011;1798;48.486;9.232;2022-08-01T15:18:16;21.10;;;8.83;;
3567;SDS011;1798;48.486;9.232;2022-08-01T15:20:43;11.37;;;6.73;;
3567;SDS011;1798;48.486;9.232;2022-08-01T15:23:10;18.70;;;5.90;;
3567;SDS011;1798;48.486;9.232;2022-08-01T15:25:37;15.27;;;6.67;;
3567;SDS011;1798;48.486;9.232;2022-08-01T15:28:04;10.37;;;6.20;;
3567;SDS011;1798;48.486;9.232;2022-08-01T15:30:31;11.70;;;6.17;;
3567;SDS011;1798;48.486;9.232;2022-08-01T15:33:01;8.50;;;5.40;;
3567;SDS011;1798;48.486;9.232;2022-08-01T15:35:28;8.63;;;5.50;;